sensor_id;sensor_type;location;lat;lon;timestamp;P1;durP1;ratioP1;P2;durP2;ratioP2
44955;SDS011;30686;52.512;-1.188;2023-01-29T00:01:50;9.60;;;5.18;;
44955;SDS011;30686;52.512;-1.188;2023-01-29T00:04:16;12.90;;;4.82;;
44955;SDS011;30686;52.512;-1.188;2023-01-29T00:06:42;9.88;;;4.72;;
44955;SDS011;30686;52.512;-1.188;2023-01-29T00:09:10;9.15;;;4.50;;
44955;SDS011;30686;52.512;-1.188;2023-01-29T00:11:37;8.55;;;4.13;;
44955;SDS011;30686;52.512;-1.188;2023-01-29T00:14:04;5.30;;;3.65;;
44955;SDS011;30686;52.512;-1.188;2023-01-29T00:16:32;7.40;;;3.95;;
44955;SDS011;30686;52.512;-1.188;2023-01-29T00:19:02;9.43;;;4.13;;
44955;SDS011;30686;52.512;-1.188;2023-01-29T00:21:29;9.05;;;4.20;;
44955;SDS011;30686;52.512;-1.188;2023-01-29T00:23:56;11.20;;;3.83;;
44955;SDS011;30686;52.512;-1.188;2023-01-29T00:26:23;7.90;;;4.15;;
44955;SDS011;30686;52.512;-1.188;2023-01-29T00:28:49;6.63;;;3.47;;
44955;SDS011;30686;52.512;-1.188;2023-01-29T00:31:18;8.90;;;3.92;;
44955;SDS011;30686;52.512;-1.188;2023-01-29T00:33:45;7.75;;;4.15;;
44955;SDS011;30686;52.512;-1.188;2023-01-29T00:36:12;7.95;;;4.40;;
44955;SDS011;30686;52.512;-1.188;2023-01-29T00:38:39;9.10;;;3.75;;
44955;SDS011;30686;52.512;-1.188;2023-01-29T00:41:25;7.65;;;3.85;;
44955;SDS011;30686;52.512;-1.188;2023-01-29T00:44:10;6.40;;;3.20;;
44955;SDS011;30686;52.512;-1.188;2023-01-29T00:49:24;8.30;;;3.30;;
44955;SDS011;30686;52.512;-1.188;2023-01-29T00:51:51;8.13;;;3.38;;
44955;SDS011;30686;52.512;-1.188;2023-01-29T00:54:36;8.23;;;3.70;;
44955;SDS011;30686;52.512;-1.188;2023-01-29T00:57:02;4.82;;;2.97;;
44955;SDS011;30686;52.512;-1.188;2023-01-29T00:59:29;7.00;;;2.95;;
44955;SDS011;30686;52.512;-1.188;2023-01-29T01:01:55;5.40;;;3.15;;
44955;SDS011;30686;52.512;-1.188;2023-01-29T01:04:40;6.43;;;3.50;;
44955;SDS011;30686;52.512;-1.188;2023-01-29T01:07:06;9.23;;;3.78;;
44955;SDS011;30686;52.512;-1.188;2023-01-29T01:09:36;7.00;;;3.33;;
44955;SDS011;30686;52.512;-1.188;2023-01-29T01:12:21;15.30;;;3.67;;
44955;SDS011;30686;52.512;-1.188;2023-01-29T01:14:50;7.70;;;3.20;;
44955;SDS011;30686;52.512;-1.188;2023-01-29T01:17:17;5.78;;;3.15;;
44955;SDS011;30686;52.512;-1.188;2023-01-29T01:19:44;12.82;;;3.90;;
44955;SDS011;30686;52.512;-1.188;2023-01-29T01:22:10;10.02;;;3.92;;
44955;SDS011;30686;52.512;-1.188;2023-01-29T01:24:38;8.25;;;3.63;;
44955;SDS011;30686;52.512;-1.188;2023-01-29T01:27:05;8.13;;;3.53;;
44955;SDS011;30686;52.512;-1.188;2023-01-29T01:29:31;5.95;;;3.20;;
44955;SDS011;30686;52.512;-1.188;2023-01-29T01:31:58;5.90;;;3.10;;
44955;SDS011;30686;52.512;-1.188;2023-01-29T01:34:25;7.57;;;3.55;;
44955;SDS011;30686;52.512;-1.188;2023-01-29T01:36:52;6.88;;;3.17;;
44955;SDS011;30686;52.512;-1.188;2023-01-29T01:39:18;6.70;;;3.13;;
44955;SDS011;30686;52.512;-1.188;2023-01-29T01:41:48;6.00;;;3.13;;
44955;SDS011;30686;52.512;-1.188;2023-01-29T01:49:25;6.65;;;2.85;;
44955;SDS011;30686;52.512;-1.188;2023-01-29T01:51:51;8.80;;;3.20;;
44955;SDS011;30686;52.512;-1.188;2023-01-29T01:54:20;8.00;;;2.85;;
44955;SDS011;30686;52.512;-1.188;2023-01-29T01:56:48;7.50;;;2.63;;
44955;SDS011;30686;52.512;-1.188;2023-01-29T01:59:18;10.90;;;3.10;;
44955;SDS011;30686;52.512;-1.188;2023-01-29T02:01:48;7.43;;;3.28;;
44955;SDS011;30686;52.512;-1.188;2023-01-29T02:04:18;6.75;;;2.78;;
44955;SDS011;30686;52.512;-1.188;2023-01-29T02:07:05;8.25;;;2.80;;
44955;SDS011;30686;52.512;-1.188;2023-01-29T02:09:52;10.27;;;2.83;;
44955;SDS011;30686;52.512;-1.188;2023-01-29T02:12:19;6.22;;;3.03;;
44955;SDS011;30686;52.512;-1.188;2023-01-29T02:14:46;7.82;;;3.10;;
44955;SDS011;30686;52.512;-1.188;2023-01-29T02:17:13;9.35;;;3.00;;
44955;SDS011;30686;52.512;-1.188;2023-01-29T02:25:01;9.52;;;2.67;;
44955;SDS011;30686;52.512;-1.188;2023-01-29T02:30:22;7.72;;;2.85;;
44955;SDS011;30686;52.512;-1.188;2023-01-29T02:33:55;4.90;;;2.55;;
44955;SDS011;30686;52.512;-1.188;2023-01-29T02:36:12;3.28;;;1.80;;
44955;SDS011;30686;52.512;-1.188;2023-01-29T02:43:50;4.30;;;2.55;;
44955;SDS011;30686;52.512;-1.188;2023-01-29T02:46:25;6.72;;;2.38;;
44955;SDS011;30686;52.512;-1.188;2023-01-29T02:49:09;4.40;;;2.60;;
44955;SDS011;30686;52.512;-1.188;2023-01-29T02:54:16;5.13;;;2.38;;
44955;SDS011;30686;52.512;-1.188;2023-01-29T02:56:50;8.02;;;2.65;;
44955;SDS011;30686;52.512;-1.188;2023-01-29T02:59:18;8.15;;;2.55;;
44955;SDS011;30686;52.512;-1.188;2023-01-29T03:02:20;3.55;;;2.20;;
44955;SDS011;30686;52.512;-1.188;2023-01-29T03:04:41;4.13;;;2.38;;
44955;SDS011;30686;52.512;-1.188;2023-01-29T03:07:13;5.68;;;2.35;;
44955;SDS011;30686;52.512;-1.188;2023-01-29T03:10:01;4.07;;;2.30;;
44955;SDS011;30686;52.512;-1.188;2023-01-29T03:12:28;6.00;;;2.38;;
44955;SDS011;30686;52.512;-1.188;2023-01-29T03:15:06;4.13;;;2.08;;
44955;SDS011;30686;52.512;-1.188;2023-01-29T03:17:44;7.18;;;3.25;;
44955;SDS011;30686;52.512;-1.188;2023-01-29T03:20:14;5.93;;;2.90;;
44955;SDS011;30686;52.512;-1.188;2023-01-29T03:22:44;4.88;;;2.53;;
44955;SDS011;30686;52.512;-1.188;2023-01-29T03:25:12;8.15;;;3.05;;
44955;SDS011;30686;52.512;-1.188;2023-01-29T03:27:59;4.43;;;2.47;;
44955;SDS011;30686;52.512;-1.188;2023-01-29T03:30:52;5.68;;;2.55;;
44955;SDS011;30686;52.512;-1.188;2023-01-29T03:36:17;4.68;;;2.53;;
44955;SDS011;30686;52.512;-1.188;2023-01-29T03:38:45;10.43;;;3.17;;
44955;SDS011;30686;52.512;-1.188;2023-01-29T03:41:22;7.60;;;2.97;;
44955;SDS011;30686;52.512;-1.188;2023-01-29T03:44:13;7.10;;;2.58;;
44955;SDS011;30686;52.512;-1.188;2023-01-29T03:46:54;8.43;;;3.10;;
44955;SDS011;30686;52.512;-1.188;2023-01-29T03:49:36;7.35;;;3.10;;
44955;SDS011;30686;52.512;-1.188;2023-01-29T03:57:30;9.43;;;2.78;;
44955;SDS011;30686;52.512;-1.188;2023-01-29T04:00:07;6.68;;;2.38;;
44955;SDS011;30686;52.512;-1.188;2023-01-29T04:02:41;6.40;;;3.10;;
44955;SDS011;30686;52.512;-1.188;2023-01-29T04:05:21;7.93;;;3.10;;
44955;SDS011;30686;52.512;-1.188;2023-01-29T04:07:50;5.85;;;3.15;;
44955;SDS011;30686;52.512;-1.188;2023-01-29T04:10:18;5.50;;;3.08;;
44955;SDS011;30686;52.512;-1.188;2023-01-29T04:12:47;13.10;;;3.10;;
44955;SDS011;30686;52.512;-1.188;2023-01-29T04:15:15;8.18;;;3.00;;
44955;SDS011;30686;52.512;-1.188;2023-01-29T04:17:43;7.18;;;3.53;;
44955;SDS011;30686;52.512;-1.188;2023-01-29T04:20:11;6.70;;;3.28;;
44955;SDS011;30686;52.512;-1.188;2023-01-29T04:22:38;7.55;;;3.33;;
44955;SDS011;30686;52.512;-1.188;2023-01-29T04:25:08;5.72;;;3.25;;
44955;SDS011;30686;52.512;-1.188;2023-01-29T04:30:27;6.90;;;3.15;;
44955;SDS011;30686;52.512;-1.188;2023-01-29T04:35:56;5.78;;;3.47;;
44955;SDS011;30686;52.512;-1.188;2023-01-29T04:40:58;6.85;;;3.50;;
44955;SDS011;30686;52.512;-1.188;2023-01-29T04:43:38;6.80;;;3.10;;
44955;SDS011;30686;52.512;-1.188;2023-01-29T04:53:46;5.28;;;3.03;;
44955;SDS011;30686;52.512;-1.188;2023-01-29T04:56:25;6.15;;;2.72;;
44955;SDS011;30686;52.512;-1.188;2023-01-29T04:59:18;8.00;;;3.13;;
44955;SDS011;30686;52.512;-1.188;2023-01-29T05:01:43;6.53;;;3.38;;
44955;SDS011;30686;52.512;-1.188;2023-01-29T05:04:10;12.00;;;3.38;;
44955;SDS011;30686;52.512;-1.188;2023-01-29T05:06:41;6.65;;;3.25;;
44955;SDS011;30686;52.512;-1.188;2023-01-29T05:09:11;8.05;;;3.90;;
44955;SDS011;30686;52.512;-1.188;2023-01-29T05:11:38;5.82;;;2.80;;
44955;SDS011;30686;52.512;-1.188;2023-01-29T05:14:05;4.65;;;3.13;;
44955;SDS011;30686;52.512;-1.188;2023-01-29T05:16:41;5.35;;;2.72;;
44955;SDS011;30686;52.512;-1.188;2023-01-29T05:19:09;8.10;;;3.80;;
44955;SDS011;30686;52.512;-1.188;2023-01-29T05:21:36;5.97;;;2.70;;
44955;SDS011;30686;52.512;-1.188;2023-01-29T05:24:25;5.90;;;3.30;;
44955;SDS011;30686;52.512;-1.188;2023-01-29T05:26:53;6.03;;;3.47;;
44955;SDS011;30686;52.512;-1.188;2023-01-29T05:29:43;6.38;;;3.28;;
44955;SDS011;30686;52.512;-1.188;2023-01-29T05:32:10;10.45;;;4.13;;
44955;SDS011;30686;52.512;-1.188;2023-01-29T05:34:36;9.68;;;3.15;;
44955;SDS011;30686;52.512;-1.188;2023-01-29T05:37:03;7.00;;;3.08;;
44955;SDS011;30686;52.512;-1.188;2023-01-29T05:39:29;6.78;;;3.47;;
44955;SDS011;30686;52.512;-1.188;2023-01-29T05:41:56;7.57;;;3.05;;
44955;SDS011;30686;52.512;-1.188;2023-01-29T05:44:22;5.47;;;2.88;;
44955;SDS011;30686;52.512;-1.188;2023-01-29T05:46:48;6.22;;;3.55;;
44955;SDS011;30686;52.512;-1.188;2023-01-29T05:49:15;6.50;;;3.40;;
44955;SDS011;30686;52.512;-1.188;2023-01-29T05:51:42;6.15;;;3.90;;
44955;SDS011;30686;52.512;-1.188;2023-01-29T05:54:12;9.60;;;3.78;;
44955;SDS011;30686;52.512;-1.188;2023-01-29T05:56:38;8.93;;;3.78;;
44955;SDS011;30686;52.512;-1.188;2023-01-29T05:59:05;4.55;;;2.63;;
44955;SDS011;30686;52.512;-1.188;2023-01-29T06:01:31;7.82;;;4.03;;
44955;SDS011;30686;52.512;-1.188;2023-01-29T06:03:58;12.27;;;4.30;;
44955;SDS011;30686;52.512;-1.188;2023-01-29T06:06:24;7.20;;;4.03;;
44955;SDS011;30686;52.512;-1.188;2023-01-29T06:08:50;8.85;;;4.18;;
44955;SDS011;30686;52.512;-1.188;2023-01-29T06:11:17;7.03;;;3.38;;
44955;SDS011;30686;52.512;-1.188;2023-01-29T06:13:44;7.15;;;3.08;;
44955;SDS011;30686;52.512;-1.188;2023-01-29T06:16:12;5.10;;;3.20;;
44955;SDS011;30686;52.512;-1.188;2023-01-29T06:18:38;9.25;;;3.92;;
44955;SDS011;30686;52.512;-1.188;2023-01-29T06:21:06;7.40;;;3.05;;
44955;SDS011;30686;52.512;-1.188;2023-01-29T06:23:32;8.13;;;3.22;;
44955;SDS011;30686;52.512;-1.188;2023-01-29T06:25:59;8.00;;;3.97;;
44955;SDS011;30686;52.512;-1.188;2023-01-29T06:28:26;6.03;;;3.33;;
44955;SDS011;30686;52.512;-1.188;2023-01-29T06:30:52;5.00;;;2.58;;
44955;SDS011;30686;52.512;-1.188;2023-01-29T06:33:21;6.97;;;3.55;;
44955;SDS011;30686;52.512;-1.188;2023-01-29T06:35:47;6.75;;;3.42;;
44955;SDS011;30686;52.512;-1.188;2023-01-29T06:38:14;8.45;;;3.65;;
44955;SDS011;30686;52.512;-1.188;2023-01-29T06:40:40;5.47;;;3.15;;
44955;SDS011;30686;52.512;-1.188;2023-01-29T06:43:07;7.05;;;3.75;;
44955;SDS011;30686;52.512;-1.188;2023-01-29T06:45:33;8.65;;;3.83;;
44955;SDS011;30686;52.512;-1.188;2023-01-29T06:48:04;6.88;;;3.72;;
44955;SDS011;30686;52.512;-1.188;2023-01-29T06:50:30;9.80;;;4.22;;
44955;SDS011;30686;52.512;-1.188;2023-01-29T06:52:57;9.30;;;4.22;;
44955;SDS011;30686;52.512;-1.188;2023-01-29T06:55:23;6.75;;;3.50;;
44955;SDS011;30686;52.512;-1.188;2023-01-29T06:57:52;7.15;;;3.72;;
44955;SDS011;30686;52.512;-1.188;2023-01-29T07:00:18;8.40;;;4.55;;
44955;SDS011;30686;52.512;-1.188;2023-01-29T07:02:47;7.28;;;4.00;;
44955;SDS011;30686;52.512;-1.188;2023-01-29T07:05:13;10.15;;;4.30;;
44955;SDS011;30686;52.512;-1.188;2023-01-29T07:07:40;8.75;;;3.63;;
44955;SDS011;30686;52.512;-1.188;2023-01-29T07:10:06;7.13;;;3.25;;
44955;SDS011;30686;52.512;-1.188;2023-01-29T07:12:33;9.60;;;4.30;;
44955;SDS011;30686;52.512;-1.188;2023-01-29T07:14:59;8.85;;;4.10;;
44955;SDS011;30686;52.512;-1.188;2023-01-29T07:17:25;10.98;;;4.70;;
44955;SDS011;30686;52.512;-1.188;2023-01-29T07:19:52;11.23;;;5.13;;
44955;SDS011;30686;52.512;-1.188;2023-01-29T07:22:18;9.43;;;4.57;;
44955;SDS011;30686;52.512;-1.188;2023-01-29T07:24:44;12.80;;;5.50;;
44955;SDS011;30686;52.512;-1.188;2023-01-29T07:27:12;12.70;;;4.95;;
44955;SDS011;30686;52.512;-1.188;2023-01-29T07:29:38;10.43;;;4.75;;
44955;SDS011;30686;52.512;-1.188;2023-01-29T07:32:05;8.07;;;3.58;;
44955;SDS011;30686;52.512;-1.188;2023-01-29T07:34:32;12.45;;;4.68;;
44955;SDS011;30686;52.512;-1.188;2023-01-29T07:36:58;8.75;;;5.20;;
44955;SDS011;30686;52.512;-1.188;2023-01-29T07:39:24;10.98;;;4.15;;
44955;SDS011;30686;52.512;-1.188;2023-01-29T07:41:51;10.27;;;5.38;;
44955;SDS011;30686;52.512;-1.188;2023-01-29T07:44:20;12.98;;;5.93;;
44955;SDS011;30686;52.512;-1.188;2023-01-29T07:46:46;11.30;;;5.45;;
44955;SDS011;30686;52.512;-1.188;2023-01-29T07:49:12;10.77;;;5.00;;
44955;SDS011;30686;52.512;-1.188;2023-01-29T07:51:39;11.75;;;5.32;;
44955;SDS011;30686;52.512;-1.188;2023-01-29T07:54:05;7.22;;;4.20;;
44955;SDS011;30686;52.512;-1.188;2023-01-29T07:56:31;9.75;;;4.97;;
44955;SDS011;30686;52.512;-1.188;2023-01-29T07:58:58;13.07;;;5.45;;
44955;SDS011;30686;52.512;-1.188;2023-01-29T08:01:24;12.73;;;5.55;;
44955;SDS011;30686;52.512;-1.188;2023-01-29T08:03:50;14.07;;;4.93;;
44955;SDS011;30686;52.512;-1.188;2023-01-29T08:06:17;15.57;;;6.78;;
44955;SDS011;30686;52.512;-1.188;2023-01-29T08:08:43;10.20;;;4.93;;
44955;SDS011;30686;52.512;-1.188;2023-01-29T08:11:10;8.82;;;4.60;;
44955;SDS011;30686;52.512;-1.188;2023-01-29T08:13:36;13.32;;;5.18;;
44955;SDS011;30686;52.512;-1.188;2023-01-29T08:16:02;11.13;;;5.72;;
44955;SDS011;30686;52.512;-1.188;2023-01-29T08:18:29;10.70;;;4.53;;
44955;SDS011;30686;52.512;-1.188;2023-01-29T08:20:59;20.73;;;10.32;;
44955;SDS011;30686;52.512;-1.188;2023-01-29T08:23:25;31.02;;;17.48;;
44955;SDS011;30686;52.512;-1.188;2023-01-29T08:25:52;39.38;;;18.58;;
44955;SDS011;30686;52.512;-1.188;2023-01-29T08:28:18;30.67;;;14.93;;
44955;SDS011;30686;52.512;-1.188;2023-01-29T08:30:44;20.08;;;11.98;;
44955;SDS011;30686;52.512;-1.188;2023-01-29T08:33:11;13.80;;;8.13;;
44955;SDS011;30686;52.512;-1.188;2023-01-29T08:35:37;16.88;;;10.05;;
44955;SDS011;30686;52.512;-1.188;2023-01-29T08:38:05;17.60;;;9.82;;
44955;SDS011;30686;52.512;-1.188;2023-01-29T08:40:32;17.73;;;8.73;;
44955;SDS011;30686;52.512;-1.188;2023-01-29T08:42:59;16.73;;;7.88;;
44955;SDS011;30686;52.512;-1.188;2023-01-29T08:45:29;17.00;;;8.68;;
44955;SDS011;30686;52.512;-1.188;2023-01-29T08:47:55;11.65;;;6.13;;
44955;SDS011;30686;52.512;-1.188;2023-01-29T08:50:22;13.65;;;7.45;;
44955;SDS011;30686;52.512;-1.188;2023-01-29T08:52:48;11.23;;;5.22;;
44955;SDS011;30686;52.512;-1.188;2023-01-29T08:55:14;11.30;;;6.25;;
44955;SDS011;30686;52.512;-1.188;2023-01-29T08:57:41;15.23;;;7.45;;
44955;SDS011;30686;52.512;-1.188;2023-01-29T09:00:08;18.50;;;7.97;;
44955;SDS011;30686;52.512;-1.188;2023-01-29T09:02:35;26.15;;;10.68;;
44955;SDS011;30686;52.512;-1.188;2023-01-29T09:05:01;23.20;;;11.32;;
44955;SDS011;30686;52.512;-1.188;2023-01-29T09:07:28;23.27;;;11.75;;
44955;SDS011;30686;52.512;-1.188;2023-01-29T09:09:57;25.00;;;9.82;;
44955;SDS011;30686;52.512;-1.188;2023-01-29T09:12:23;17.30;;;10.27;;
44955;SDS011;30686;52.512;-1.188;2023-01-29T09:14:49;19.73;;;10.23;;
44955;SDS011;30686;52.512;-1.188;2023-01-29T09:17:16;19.60;;;9.45;;
44955;SDS011;30686;52.512;-1.188;2023-01-29T09:19:42;19.00;;;8.68;;
44955;SDS011;30686;52.512;-1.188;2023-01-29T09:22:08;14.10;;;7.47;;
44955;SDS011;30686;52.512;-1.188;2023-01-29T09:24:35;15.80;;;7.43;;
44955;SDS011;30686;52.512;-1.188;2023-01-29T09:27:01;15.30;;;6.28;;
44955;SDS011;30686;52.512;-1.188;2023-01-29T09:29:28;11.15;;;5.78;;
44955;SDS011;30686;52.512;-1.188;2023-01-29T09:31:56;15.43;;;6.93;;
44955;SDS011;30686;52.512;-1.188;2023-01-29T09:34:22;13.65;;;5.70;;
44955;SDS011;30686;52.512;-1.188;2023-01-29T09:36:50;12.88;;;5.72;;
44955;SDS011;30686;52.512;-1.188;2023-01-29T09:39:16;11.95;;;5.50;;
44955;SDS011;30686;52.512;-1.188;2023-01-29T09:46:56;11.82;;;5.50;;
44955;SDS011;30686;52.512;-1.188;2023-01-29T09:49:34;11.90;;;5.50;;
44955;SDS011;30686;52.512;-1.188;2023-01-29T09:52:04;13.55;;;5.72;;
44955;SDS011;30686;52.512;-1.188;2023-01-29T09:54:41;13.57;;;5.78;;
44955;SDS011;30686;52.512;-1.188;2023-01-29T09:57:14;16.63;;;5.82;;
44955;SDS011;30686;52.512;-1.188;2023-01-29T09:59:44;13.80;;;6.03;;
44955;SDS011;30686;52.512;-1.188;2023-01-29T10:05:01;10.18;;;4.53;;
44955;SDS011;30686;52.512;-1.188;2023-01-29T10:07:37;15.18;;;6.10;;
44955;SDS011;30686;52.512;-1.188;2023-01-29T10:23:10;15.27;;;5.72;;
44955;SDS011;30686;52.512;-1.188;2023-01-29T10:25:43;10.90;;;4.55;;
44955;SDS011;30686;52.512;-1.188;2023-01-29T10:28:19;12.20;;;5.15;;
44955;SDS011;30686;52.512;-1.188;2023-01-29T10:30:49;13.77;;;6.65;;
44955;SDS011;30686;52.512;-1.188;2023-01-29T10:33:22;10.95;;;4.88;;
44955;SDS011;30686;52.512;-1.188;2023-01-29T10:35:52;9.13;;;4.97;;
44955;SDS011;30686;52.512;-1.188;2023-01-29T10:40:52;13.27;;;5.90;;
44955;SDS011;30686;52.512;-1.188;2023-01-29T10:43:21;16.02;;;6.65;;
44955;SDS011;30686;52.512;-1.188;2023-01-29T10:53:52;16.30;;;6.07;;
44955;SDS011;30686;52.512;-1.188;2023-01-29T10:59:03;10.73;;;5.40;;
44955;SDS011;30686;52.512;-1.188;2023-01-29T11:01:30;7.65;;;3.95;;
44955;SDS011;30686;52.512;-1.188;2023-01-29T11:04:00;6.38;;;3.03;;
44955;SDS011;30686;52.512;-1.188;2023-01-29T11:06:31;8.07;;;3.92;;
44955;SDS011;30686;52.512;-1.188;2023-01-29T11:09:00;6.95;;;3.17;;
44955;SDS011;30686;52.512;-1.188;2023-01-29T11:11:30;4.63;;;2.30;;
44955;SDS011;30686;52.512;-1.188;2023-01-29T11:14:07;6.93;;;3.08;;
44955;SDS011;30686;52.512;-1.188;2023-01-29T11:16:45;7.55;;;3.35;;
44955;SDS011;30686;52.512;-1.188;2023-01-29T11:19:12;9.77;;;4.10;;
44955;SDS011;30686;52.512;-1.188;2023-01-29T11:24:17;7.18;;;3.97;;
44955;SDS011;30686;52.512;-1.188;2023-01-29T11:26:45;8.65;;;4.88;;
44955;SDS011;30686;52.512;-1.188;2023-01-29T11:31:58;4.85;;;2.75;;
44955;SDS011;30686;52.512;-1.188;2023-01-29T11:34:24;9.15;;;3.55;;
44955;SDS011;30686;52.512;-1.188;2023-01-29T11:36:58;6.00;;;2.80;;
44955;SDS011;30686;52.512;-1.188;2023-01-29T11:39:25;5.47;;;3.00;;
44955;SDS011;30686;52.512;-1.188;2023-01-29T11:41:55;6.95;;;3.50;;
44955;SDS011;30686;52.512;-1.188;2023-01-29T11:46:55;6.70;;;2.88;;
44955;SDS011;30686;52.512;-1.188;2023-01-29T11:49:31;5.28;;;2.80;;
44955;SDS011;30686;52.512;-1.188;2023-01-29T11:52:01;5.55;;;3.00;;
44955;SDS011;30686;52.512;-1.188;2023-01-29T11:54:38;7.30;;;3.00;;
44955;SDS011;30686;52.512;-1.188;2023-01-29T11:57:12;5.72;;;2.50;;
44955;SDS011;30686;52.512;-1.188;2023-01-29T11:59:43;9.25;;;3.83;;
44955;SDS011;30686;52.512;-1.188;2023-01-29T12:05:20;6.07;;;2.45;;
44955;SDS011;30686;52.512;-1.188;2023-01-29T12:07:49;4.22;;;1.73;;
44955;SDS011;30686;52.512;-1.188;2023-01-29T12:15:46;4.03;;;1.75;;
44955;SDS011;30686;52.512;-1.188;2023-01-29T12:20:47;3.33;;;1.42;;
44955;SDS011;30686;52.512;-1.188;2023-01-29T12:31:23;2.65;;;1.00;;
44955;SDS011;30686;52.512;-1.188;2023-01-29T12:34:05;1.23;;;0.93;;
44955;SDS011;30686;52.512;-1.188;2023-01-29T12:39:02;0.90;;;0.70;;
44955;SDS011;30686;52.512;-1.188;2023-01-29T12:41:42;2.55;;;1.23;;
44955;SDS011;30686;52.512;-1.188;2023-01-29T12:44:15;1.13;;;0.82;;
44955;SDS011;30686;52.512;-1.188;2023-01-29T12:46:44;4.10;;;1.33;;
44955;SDS011;30686;52.512;-1.188;2023-01-29T12:49:18;1.70;;;1.10;;
44955;SDS011;30686;52.512;-1.188;2023-01-29T12:51:50;2.92;;;1.30;;
44955;SDS011;30686;52.512;-1.188;2023-01-29T12:54:20;3.47;;;1.80;;
44955;SDS011;30686;52.512;-1.188;2023-01-29T12:56:54;3.67;;;1.00;;
44955;SDS011;30686;52.512;-1.188;2023-01-29T12:59:24;4.47;;;1.58;;
44955;SDS011;30686;52.512;-1.188;2023-01-29T13:01:57;3.90;;;0.98;;
44955;SDS011;30686;52.512;-1.188;2023-01-29T13:07:13;3.40;;;1.20;;
44955;SDS011;30686;52.512;-1.188;2023-01-29T13:09:42;1.70;;;1.10;;
44955;SDS011;30686;52.512;-1.188;2023-01-29T13:12:11;4.95;;;1.10;;
44955;SDS011;30686;52.512;-1.188;2023-01-29T13:14:41;3.70;;;1.10;;
44955;SDS011;30686;52.512;-1.188;2023-01-29T13:20:18;1.48;;;0.95;;
44955;SDS011;30686;52.512;-1.188;2023-01-29T13:22:46;4.07;;;1.25;;
44955;SDS011;30686;52.512;-1.188;2023-01-29T13:25:14;2.20;;;1.08;;
44955;SDS011;30686;52.512;-1.188;2023-01-29T13:27:41;7.95;;;1.20;;
44955;SDS011;30686;52.512;-1.188;2023-01-29T13:30:22;3.50;;;1.10;;
44955;SDS011;30686;52.512;-1.188;2023-01-29T13:32:49;4.35;;;1.30;;
44955;SDS011;30686;52.512;-1.188;2023-01-29T13:35:17;2.50;;;1.33;;
44955;SDS011;30686;52.512;-1.188;2023-01-29T13:37:47;2.97;;;1.40;;
44955;SDS011;30686;52.512;-1.188;2023-01-29T13:40:18;4.60;;;1.33;;
44955;SDS011;30686;52.512;-1.188;2023-01-29T13:42:46;5.10;;;1.55;;
44955;SDS011;30686;52.512;-1.188;2023-01-29T13:45:20;3.60;;;1.50;;
44955;SDS011;30686;52.512;-1.188;2023-01-29T13:47:47;1.67;;;1.05;;
44955;SDS011;30686;52.512;-1.188;2023-01-29T13:52:54;2.05;;;1.45;;
44955;SDS011;30686;52.512;-1.188;2023-01-29T13:55:22;2.17;;;1.17;;
44955;SDS011;30686;52.512;-1.188;2023-01-29T13:57:58;2.78;;;1.50;;
44955;SDS011;30686;52.512;-1.188;2023-01-29T14:08:01;2.30;;;1.40;;
44955;SDS011;30686;52.512;-1.188;2023-01-29T14:10:29;1.75;;;1.02;;
44955;SDS011;30686;52.512;-1.188;2023-01-29T14:18:25;5.47;;;1.65;;
44955;SDS011;30686;52.512;-1.188;2023-01-29T14:21:38;4.60;;;1.25;;
44955;SDS011;30686;52.512;-1.188;2023-01-29T14:28:51;3.22;;;1.50;;
44955;SDS011;30686;52.512;-1.188;2023-01-29T14:34:05;7.40;;;2.63;;
44955;SDS011;30686;52.512;-1.188;2023-01-29T14:36:38;4.22;;;1.73;;
44955;SDS011;30686;52.512;-1.188;2023-01-29T14:39:05;3.30;;;2.00;;
44955;SDS011;30686;52.512;-1.188;2023-01-29T14:41:32;3.35;;;1.52;;
44955;SDS011;30686;52.512;-1.188;2023-01-29T14:46:45;3.65;;;1.27;;
44955;SDS011;30686;52.512;-1.188;2023-01-29T14:49:12;5.18;;;1.20;;
44955;SDS011;30686;52.512;-1.188;2023-01-29T14:52:02;2.38;;;1.27;;
44955;SDS011;30686;52.512;-1.188;2023-01-29T14:54:30;2.15;;;0.95;;
44955;SDS011;30686;52.512;-1.188;2023-01-29T14:56:59;1.25;;;0.93;;
44955;SDS011;30686;52.512;-1.188;2023-01-29T14:59:29;1.75;;;1.10;;
44955;SDS011;30686;52.512;-1.188;2023-01-29T15:01:56;2.90;;;1.25;;
44955;SDS011;30686;52.512;-1.188;2023-01-29T15:04:37;1.63;;;1.13;;
44955;SDS011;30686;52.512;-1.188;2023-01-29T15:09:47;2.65;;;1.20;;
44955;SDS011;30686;52.512;-1.188;2023-01-29T15:14:42;4.47;;;1.20;;
44955;SDS011;30686;52.512;-1.188;2023-01-29T15:17:16;2.17;;;1.00;;
44955;SDS011;30686;52.512;-1.188;2023-01-29T15:19:47;1.88;;;1.10;;
44955;SDS011;30686;52.512;-1.188;2023-01-29T15:22:15;2.72;;;1.30;;
44955;SDS011;30686;52.512;-1.188;2023-01-29T15:24:42;9.05;;;1.38;;
44955;SDS011;30686;52.512;-1.188;2023-01-29T15:27:12;3.72;;;1.48;;
44955;SDS011;30686;52.512;-1.188;2023-01-29T15:29:40;3.40;;;1.17;;
44955;SDS011;30686;52.512;-1.188;2023-01-29T15:32:11;1.52;;;1.15;;
44955;SDS011;30686;52.512;-1.188;2023-01-29T15:34:41;3.22;;;1.25;;
44955;SDS011;30686;52.512;-1.188;2023-01-29T15:37:22;2.50;;;1.42;;
44955;SDS011;30686;52.512;-1.188;2023-01-29T15:39:48;2.40;;;1.23;;
44955;SDS011;30686;52.512;-1.188;2023-01-29T15:42:15;3.20;;;1.33;;
44955;SDS011;30686;52.512;-1.188;2023-01-29T15:44:47;4.32;;;1.55;;
44955;SDS011;30686;52.512;-1.188;2023-01-29T15:47:13;4.85;;;1.45;;
44955;SDS011;30686;52.512;-1.188;2023-01-29T15:49:40;4.00;;;1.95;;
44955;SDS011;30686;52.512;-1.188;2023-01-29T15:52:14;3.03;;;1.25;;
44955;SDS011;30686;52.512;-1.188;2023-01-29T15:54:41;8.38;;;1.90;;
44955;SDS011;30686;52.512;-1.188;2023-01-29T15:57:17;4.35;;;1.30;;
44955;SDS011;30686;52.512;-1.188;2023-01-29T15:59:47;4.00;;;1.80;;
44955;SDS011;30686;52.512;-1.188;2023-01-29T16:05:02;6.20;;;2.70;;
44955;SDS011;30686;52.512;-1.188;2023-01-29T16:07:33;6.13;;;2.20;;
44955;SDS011;30686;52.512;-1.188;2023-01-29T16:09:59;4.55;;;2.00;;
44955;SDS011;30686;52.512;-1.188;2023-01-29T16:12:26;3.97;;;1.50;;
44955;SDS011;30686;52.512;-1.188;2023-01-29T16:14:59;2.03;;;1.13;;
44955;SDS011;30686;52.512;-1.188;2023-01-29T16:17:31;6.50;;;1.48;;
44955;SDS011;30686;52.512;-1.188;2023-01-29T16:20:01;2.78;;;1.38;;
44955;SDS011;30686;52.512;-1.188;2023-01-29T16:22:30;4.90;;;1.70;;
44955;SDS011;30686;52.512;-1.188;2023-01-29T16:25:00;5.35;;;1.90;;
44955;SDS011;30686;52.512;-1.188;2023-01-29T16:27:30;5.63;;;1.80;;
44955;SDS011;30686;52.512;-1.188;2023-01-29T16:29:59;4.45;;;1.67;;
44955;SDS011;30686;52.512;-1.188;2023-01-29T16:32:29;4.90;;;1.60;;
44955;SDS011;30686;52.512;-1.188;2023-01-29T16:34:56;2.97;;;1.35;;
44955;SDS011;30686;52.512;-1.188;2023-01-29T16:39:53;2.47;;;1.15;;
44955;SDS011;30686;52.512;-1.188;2023-01-29T16:42:24;3.70;;;1.30;;
44955;SDS011;30686;52.512;-1.188;2023-01-29T16:45:00;3.88;;;1.45;;
44955;SDS011;30686;52.512;-1.188;2023-01-29T16:50:01;5.93;;;2.83;;
44955;SDS011;30686;52.512;-1.188;2023-01-29T16:52:29;6.85;;;2.38;;
44955;SDS011;30686;52.512;-1.188;2023-01-29T16:55:00;3.05;;;1.30;;
44955;SDS011;30686;52.512;-1.188;2023-01-29T16:57:28;2.33;;;1.15;;
44955;SDS011;30686;52.512;-1.188;2023-01-29T16:59:56;3.17;;;1.55;;
44955;SDS011;30686;52.512;-1.188;2023-01-29T17:02:28;2.25;;;1.40;;
44955;SDS011;30686;52.512;-1.188;2023-01-29T17:04:59;3.00;;;1.55;;
44955;SDS011;30686;52.512;-1.188;2023-01-29T17:07:26;4.90;;;1.20;;
44955;SDS011;30686;52.512;-1.188;2023-01-29T17:09:57;1.90;;;1.10;;
44955;SDS011;30686;52.512;-1.188;2023-01-29T17:12:24;2.58;;;1.35;;
44955;SDS011;30686;52.512;-1.188;2023-01-29T17:14:55;2.63;;;1.33;;
44955;SDS011;30686;52.512;-1.188;2023-01-29T17:17:27;2.30;;;1.27;;
44955;SDS011;30686;52.512;-1.188;2023-01-29T17:22:24;6.75;;;1.45;;
44955;SDS011;30686;52.512;-1.188;2023-01-29T17:24:50;2.83;;;1.42;;
44955;SDS011;30686;52.512;-1.188;2023-01-29T17:27:20;3.17;;;1.50;;